sensor_id;sensor_type;location;lat;lon;timestamp;P1;durP1;ratioP1;P2;durP2;ratioP2
50631;SDS011;49583;45.590;-122.498;2023-07-30T00:00:03;3.40;;;1.70;;
50631;SDS011;49583;45.590;-122.498;2023-07-30T00:02:37;2.00;;;1.40;;
50631;SDS011;49583;45.590;-122.498;2023-07-30T00:04:50;5.50;;;1.40;;
50631;SDS011;49583;45.590;-122.498;2023-07-30T00:07:03;1.50;;;1.30;;
50631;SDS011;49583;45.590;-122.498;2023-07-30T00:09:16;1.70;;;1.20;;
50631;SDS011;49583;45.590;-122.498;2023-07-30T00:11:29;3.20;;;1.70;;
50631;SDS011;49583;45.590;-122.498;2023-07-30T00:13:42;2.10;;;1.60;;
50631;SDS011;49583;45.590;-122.498;2023-07-30T00:15:55;2.60;;;1.40;;
50631;SDS011;49583;45.590;-122.498;2023-07-30T00:18:07;1.50;;;1.10;;
50631;SDS011;49583;45.590;-122.498;2023-07-30T00:20:20;1.30;;;1.10;;
50631;SDS011;49583;45.590;-122.498;2023-07-30T00:22:33;2.10;;;1.40;;
50631;SDS011;49583;45.590;-122.498;2023-07-30T00:24:45;2.40;;;1.40;;
50631;SDS011;49583;45.590;-122.498;2023-07-30T00:26:58;2.30;;;1.60;;
50631;SDS011;49583;45.590;-122.498;2023-07-30T00:29:11;4.20;;;1.40;;
50631;SDS011;49583;45.590;-122.498;2023-07-30T00:31:23;2.70;;;1.20;;
50631;SDS011;49583;45.590;-122.498;2023-07-30T00:33:37;4.10;;;1.10;;
50631;SDS011;49583;45.590;-122.498;2023-07-30T00:35:51;2.00;;;1.30;;
50631;SDS011;49583;45.590;-122.498;2023-07-30T00:38:03;3.60;;;1.40;;
50631;SDS011;49583;45.590;-122.498;2023-07-30T00:40:16;4.00;;;1.70;;
50631;SDS011;49583;45.590;-122.498;2023-07-30T00:42:29;2.30;;;1.80;;
50631;SDS011;49583;45.590;-122.498;2023-07-30T00:44:42;2.90;;;1.50;;
50631;SDS011;49583;45.590;-122.498;2023-07-30T00:46:55;2.80;;;1.70;;
50631;SDS011;49583;45.590;-122.498;2023-07-30T00:49:08;2.80;;;1.60;;
50631;SDS011;49583;45.590;-122.498;2023-07-30T00:51:21;1.80;;;1.30;;
50631;SDS011;49583;45.590;-122.498;2023-07-30T00:53:34;3.60;;;1.50;;
50631;SDS011;49583;45.590;-122.498;2023-07-30T00:55:46;3.40;;;2.10;;
50631;SDS011;49583;45.590;-122.498;2023-07-30T00:57:59;3.40;;;1.70;;
50631;SDS011;49583;45.590;-122.498;2023-07-30T01:00:15;2.70;;;1.70;;
50631;SDS011;49583;45.590;-122.498;2023-07-30T01:02:30;4.80;;;1.70;;
50631;SDS011;49583;45.590;-122.498;2023-07-30T01:04:43;4.10;;;1.30;;
50631;SDS011;49583;45.590;-122.498;2023-07-30T01:06:56;2.90;;;1.50;;
50631;SDS011;49583;45.590;-122.498;2023-07-30T01:09:09;1.90;;;1.10;;
50631;SDS011;49583;45.590;-122.498;2023-07-30T01:11:23;2.70;;;1.80;;
50631;SDS011;49583;45.590;-122.498;2023-07-30T01:13:36;2.50;;;1.60;;
50631;SDS011;49583;45.590;-122.498;2023-07-30T01:15:51;2.70;;;1.40;;
50631;SDS011;49583;45.590;-122.498;2023-07-30T01:18:04;2.50;;;1.30;;
50631;SDS011;49583;45.590;-122.498;2023-07-30T01:20:17;1.60;;;1.30;;
50631;SDS011;49583;45.590;-122.498;2023-07-30T01:22:31;5.10;;;1.50;;
50631;SDS011;49583;45.590;-122.498;2023-07-30T01:24:44;2.50;;;1.70;;
50631;SDS011;49583;45.590;-122.498;2023-07-30T01:26:59;2.10;;;1.10;;
50631;SDS011;49583;45.590;-122.498;2023-07-30T01:29:19;2.60;;;1.40;;
50631;SDS011;49583;45.590;-122.498;2023-07-30T01:31:37;1.50;;;1.20;;
50631;SDS011;49583;45.590;-122.498;2023-07-30T01:33:54;4.10;;;1.20;;
50631;SDS011;49583;45.590;-122.498;2023-07-30T01:36:08;4.60;;;1.50;;
50631;SDS011;49583;45.590;-122.498;2023-07-30T01:38:24;5.30;;;1.30;;
50631;SDS011;49583;45.590;-122.498;2023-07-30T01:40:39;2.10;;;1.20;;
50631;SDS011;49583;45.590;-122.498;2023-07-30T01:42:52;4.00;;;1.60;;
50631;SDS011;49583;45.590;-122.498;2023-07-30T01:45:06;3.30;;;1.40;;
50631;SDS011;49583;45.590;-122.498;2023-07-30T01:47:19;2.10;;;1.20;;
50631;SDS011;49583;45.590;-122.498;2023-07-30T01:49:32;4.10;;;1.60;;
50631;SDS011;49583;45.590;-122.498;2023-07-30T01:51:46;4.00;;;1.70;;
50631;SDS011;49583;45.590;-122.498;2023-07-30T01:53:59;2.70;;;1.50;;
50631;SDS011;49583;45.590;-122.498;2023-07-30T01:56:12;2.00;;;1.50;;
50631;SDS011;49583;45.590;-122.498;2023-07-30T01:58:25;4.20;;;1.60;;
50631;SDS011;49583;45.590;-122.498;2023-07-30T02:00:38;4.90;;;1.70;;
50631;SDS011;49583;45.590;-122.498;2023-07-30T02:02:50;1.60;;;1.00;;
50631;SDS011;49583;45.590;-122.498;2023-07-30T02:05:04;2.60;;;2.00;;
50631;SDS011;49583;45.590;-122.498;2023-07-30T02:07:18;2.10;;;1.40;;
50631;SDS011;49583;45.590;-122.498;2023-07-30T02:09:31;2.60;;;1.40;;
50631;SDS011;49583;45.590;-122.498;2023-07-30T02:11:43;6.00;;;1.90;;
50631;SDS011;49583;45.590;-122.498;2023-07-30T02:13:56;5.80;;;1.40;;
50631;SDS011;49583;45.590;-122.498;2023-07-30T02:16:09;2.70;;;1.60;;
50631;SDS011;49583;45.590;-122.498;2023-07-30T02:18:22;3.00;;;1.40;;
50631;SDS011;49583;45.590;-122.498;2023-07-30T02:20:35;1.90;;;0.90;;
50631;SDS011;49583;45.590;-122.498;2023-07-30T02:22:48;6.30;;;1.60;;
50631;SDS011;49583;45.590;-122.498;2023-07-30T02:25:02;4.60;;;1.70;;
50631;SDS011;49583;45.590;-122.498;2023-07-30T02:27:17;2.80;;;1.40;;
50631;SDS011;49583;45.590;-122.498;2023-07-30T02:29:29;2.00;;;1.40;;
50631;SDS011;49583;45.590;-122.498;2023-07-30T02:31:42;2.10;;;1.50;;
50631;SDS011;49583;45.590;-122.498;2023-07-30T02:33:55;2.70;;;1.60;;
50631;SDS011;49583;45.590;-122.498;2023-07-30T02:36:07;2.20;;;1.60;;
50631;SDS011;49583;45.590;-122.498;2023-07-30T02:38:20;3.00;;;1.40;;
50631;SDS011;49583;45.590;-122.498;2023-07-30T02:40:33;3.20;;;1.40;;
50631;SDS011;49583;45.590;-122.498;2023-07-30T02:42:46;2.50;;;1.50;;
50631;SDS011;49583;45.590;-122.498;2023-07-30T02:44:59;2.90;;;1.50;;
50631;SDS011;49583;45.590;-122.498;2023-07-30T02:47:12;1.80;;;1.50;;
50631;SDS011;49583;45.590;-122.498;2023-07-30T02:49:28;3.40;;;1.40;;
50631;SDS011;49583;45.590;-122.498;2023-07-30T02:51:42;2.20;;;1.40;;
50631;SDS011;49583;45.590;-122.498;2023-07-30T02:53:58;1.80;;;1.80;;
50631;SDS011;49583;45.590;-122.498;2023-07-30T02:56:15;1.70;;;1.30;;
50631;SDS011;49583;45.590;-122.498;2023-07-30T02:58:30;2.50;;;1.60;;
50631;SDS011;49583;45.590;-122.498;2023-07-30T03:00:45;2.80;;;1.80;;
50631;SDS011;49583;45.590;-122.498;2023-07-30T03:03:03;2.80;;;1.70;;
50631;SDS011;49583;45.590;-122.498;2023-07-30T03:05:18;1.90;;;1.30;;
50631;SDS011;49583;45.590;-122.498;2023-07-30T03:07:34;2.40;;;1.30;;
50631;SDS011;49583;45.590;-122.498;2023-07-30T03:09:51;2.40;;;1.40;;
50631;SDS011;49583;45.590;-122.498;2023-07-30T03:12:05;3.30;;;1.80;;
50631;SDS011;49583;45.590;-122.498;2023-07-30T03:14:20;2.10;;;1.90;;
50631;SDS011;49583;45.590;-122.498;2023-07-30T03:16:33;2.10;;;1.30;;
50631;SDS011;49583;45.590;-122.498;2023-07-30T03:18:47;2.10;;;1.50;;
50631;SDS011;49583;45.590;-122.498;2023-07-30T03:21:00;3.40;;;1.80;;
50631;SDS011;49583;45.590;-122.498;2023-07-30T03:23:15;3.90;;;1.80;;
50631;SDS011;49583;45.590;-122.498;2023-07-30T03:25:29;3.10;;;1.70;;
50631;SDS011;49583;45.590;-122.498;2023-07-30T03:27:45;2.40;;;1.50;;
50631;SDS011;49583;45.590;-122.498;2023-07-30T03:30:00;4.70;;;1.60;;
50631;SDS011;49583;45.590;-122.498;2023-07-30T03:32:16;5.40;;;1.60;;
50631;SDS011;49583;45.590;-122.498;2023-07-30T03:34:29;7.80;;;2.30;;
50631;SDS011;49583;45.590;-122.498;2023-07-30T03:36:46;3.40;;;2.00;;
50631;SDS011;49583;45.590;-122.498;2023-07-30T03:39:02;3.10;;;2.20;;
50631;SDS011;49583;45.590;-122.498;2023-07-30T03:41:16;3.50;;;2.00;;
50631;SDS011;49583;45.590;-122.498;2023-07-30T03:43:32;2.90;;;2.30;;
50631;SDS011;49583;45.590;-122.498;2023-07-30T03:45:45;3.10;;;2.00;;
50631;SDS011;49583;45.590;-122.498;2023-07-30T03:48:00;2.20;;;1.50;;
50631;SDS011;49583;45.590;-122.498;2023-07-30T03:50:16;3.10;;;1.80;;
50631;SDS011;49583;45.590;-122.498;2023-07-30T03:52:30;4.30;;;2.10;;
50631;SDS011;49583;45.590;-122.498;2023-07-30T03:54:45;2.90;;;2.20;;
50631;SDS011;49583;45.590;-122.498;2023-07-30T03:57:00;2.30;;;2.00;;
50631;SDS011;49583;45.590;-122.498;2023-07-30T03:59:16;4.30;;;2.40;;
50631;SDS011;49583;45.590;-122.498;2023-07-30T04:01:31;3.60;;;2.40;;
50631;SDS011;49583;45.590;-122.498;2023-07-30T04:03:44;2.80;;;1.90;;
50631;SDS011;49583;45.590;-122.498;2023-07-30T04:05:59;4.70;;;2.10;;
50631;SDS011;49583;45.590;-122.498;2023-07-30T04:08:12;4.40;;;2.00;;
50631;SDS011;49583;45.590;-122.498;2023-07-30T04:10:25;5.00;;;2.40;;
50631;SDS011;49583;45.590;-122.498;2023-07-30T04:12:40;4.20;;;2.10;;
50631;SDS011;49583;45.590;-122.498;2023-07-30T04:14:54;3.40;;;1.80;;
50631;SDS011;49583;45.590;-122.498;2023-07-30T04:17:08;5.30;;;2.20;;
50631;SDS011;49583;45.590;-122.498;2023-07-30T04:19:22;6.40;;;2.00;;
50631;SDS011;49583;45.590;-122.498;2023-07-30T04:21:35;2.40;;;2.00;;
50631;SDS011;49583;45.590;-122.498;2023-07-30T04:23:49;3.40;;;2.10;;
50631;SDS011;49583;45.590;-122.498;2023-07-30T04:26:05;2.80;;;2.10;;
50631;SDS011;49583;45.590;-122.498;2023-07-30T04:28:17;2.80;;;1.70;;
50631;SDS011;49583;45.590;-122.498;2023-07-30T04:30:32;4.60;;;2.00;;
50631;SDS011;49583;45.590;-122.498;2023-07-30T04:32:45;3.80;;;2.00;;
50631;SDS011;49583;45.590;-122.498;2023-07-30T04:34:59;4.30;;;2.00;;
50631;SDS011;49583;45.590;-122.498;2023-07-30T04:37:12;2.90;;;1.90;;
50631;SDS011;49583;45.590;-122.498;2023-07-30T04:39:25;5.30;;;2.00;;
50631;SDS011;49583;45.590;-122.498;2023-07-30T04:41:39;4.50;;;1.80;;
50631;SDS011;49583;45.590;-122.498;2023-07-30T04:43:52;2.90;;;1.90;;
50631;SDS011;49583;45.590;-122.498;2023-07-30T04:46:07;3.10;;;1.80;;
50631;SDS011;49583;45.590;-122.498;2023-07-30T04:48:21;3.70;;;1.80;;
50631;SDS011;49583;45.590;-122.498;2023-07-30T04:50:35;2.30;;;1.40;;
50631;SDS011;49583;45.590;-122.498;2023-07-30T04:52:49;2.80;;;1.70;;
50631;SDS011;49583;45.590;-122.498;2023-07-30T04:55:03;2.50;;;1.80;;
50631;SDS011;49583;45.590;-122.498;2023-07-30T04:57:16;2.20;;;1.90;;
50631;SDS011;49583;45.590;-122.498;2023-07-30T04:59:29;1.90;;;1.40;;
50631;SDS011;49583;45.590;-122.498;2023-07-30T05:01:42;2.90;;;1.70;;
50631;SDS011;49583;45.590;-122.498;2023-07-30T05:03:55;2.40;;;1.70;;
50631;SDS011;49583;45.590;-122.498;2023-07-30T05:06:08;4.50;;;2.50;;
50631;SDS011;49583;45.590;-122.498;2023-07-30T05:08:21;2.60;;;1.90;;
50631;SDS011;49583;45.590;-122.498;2023-07-30T05:10:33;3.30;;;1.90;;
50631;SDS011;49583;45.590;-122.498;2023-07-30T05:12:46;4.00;;;1.60;;
50631;SDS011;49583;45.590;-122.498;2023-07-30T05:14:59;4.20;;;2.20;;
50631;SDS011;49583;45.590;-122.498;2023-07-30T05:17:14;2.10;;;1.80;;
50631;SDS011;49583;45.590;-122.498;2023-07-30T05:19:26;3.40;;;2.50;;
50631;SDS011;49583;45.590;-122.498;2023-07-30T05:21:39;3.50;;;2.00;;
50631;SDS011;49583;45.590;-122.498;2023-07-30T05:23:52;2.50;;;1.60;;
50631;SDS011;49583;45.590;-122.498;2023-07-30T05:26:05;3.60;;;1.90;;
50631;SDS011;49583;45.590;-122.498;2023-07-30T05:28:17;3.80;;;1.60;;
50631;SDS011;49583;45.590;-122.498;2023-07-30T05:30:30;2.00;;;1.60;;
50631;SDS011;49583;45.590;-122.498;2023-07-30T05:32:42;2.40;;;1.70;;
50631;SDS011;49583;45.590;-122.498;2023-07-30T05:34:56;2.40;;;1.80;;
50631;SDS011;49583;45.590;-122.498;2023-07-30T05:37:09;3.20;;;1.70;;
50631;SDS011;49583;45.590;-122.498;2023-07-30T05:39:21;3.60;;;2.20;;
50631;SDS011;49583;45.590;-122.498;2023-07-30T05:41:34;2.30;;;1.70;;
50631;SDS011;49583;45.590;-122.498;2023-07-30T05:43:47;3.70;;;1.80;;
50631;SDS011;49583;45.590;-122.498;2023-07-30T05:45:59;3.90;;;1.70;;
50631;SDS011;49583;45.590;-122.498;2023-07-30T05:48:12;3.60;;;1.90;;
50631;SDS011;49583;45.590;-122.498;2023-07-30T05:50:25;2.90;;;2.00;;
50631;SDS011;49583;45.590;-122.498;2023-07-30T05:52:37;2.60;;;1.90;;
50631;SDS011;49583;45.590;-122.498;2023-07-30T05:54:50;2.80;;;1.80;;
50631;SDS011;49583;45.590;-122.498;2023-07-30T05:57:03;2.30;;;1.70;;
50631;SDS011;49583;45.590;-122.498;2023-07-30T05:59:16;2.60;;;1.80;;
50631;SDS011;49583;45.590;-122.498;2023-07-30T06:01:29;3.60;;;1.80;;
50631;SDS011;49583;45.590;-122.498;2023-07-30T06:03:42;2.50;;;1.70;;
50631;SDS011;49583;45.590;-122.498;2023-07-30T06:05:54;2.60;;;1.90;;
50631;SDS011;49583;45.590;-122.498;2023-07-30T06:08:07;3.60;;;1.90;;
50631;SDS011;49583;45.590;-122.498;2023-07-30T06:10:20;4.20;;;2.10;;
50631;SDS011;49583;45.590;-122.498;2023-07-30T06:12:32;2.90;;;2.10;;
50631;SDS011;49583;45.590;-122.498;2023-07-30T06:14:45;3.50;;;1.90;;
50631;SDS011;49583;45.590;-122.498;2023-07-30T06:16:58;2.20;;;1.70;;
50631;SDS011;49583;45.590;-122.498;2023-07-30T06:19:10;4.00;;;1.60;;
50631;SDS011;49583;45.590;-122.498;2023-07-30T06:21:23;3.80;;;1.50;;
50631;SDS011;49583;45.590;-122.498;2023-07-30T06:23:48;3.30;;;1.90;;
50631;SDS011;49583;45.590;-122.498;2023-07-30T06:26:00;2.70;;;1.80;;
50631;SDS011;49583;45.590;-122.498;2023-07-30T06:28:14;4.30;;;1.80;;
50631;SDS011;49583;45.590;-122.498;2023-07-30T06:30:26;4.80;;;2.30;;
50631;SDS011;49583;45.590;-122.498;2023-07-30T06:32:39;4.70;;;2.10;;
50631;SDS011;49583;45.590;-122.498;2023-07-30T06:34:52;5.80;;;2.00;;
50631;SDS011;49583;45.590;-122.498;2023-07-30T06:37:04;3.80;;;1.60;;
50631;SDS011;49583;45.590;-122.498;2023-07-30T06:39:17;2.20;;;1.90;;
50631;SDS011;49583;45.590;-122.498;2023-07-30T06:41:30;2.10;;;1.80;;
50631;SDS011;49583;45.590;-122.498;2023-07-30T06:43:44;3.00;;;1.80;;
50631;SDS011;49583;45.590;-122.498;2023-07-30T06:45:56;4.80;;;1.90;;
50631;SDS011;49583;45.590;-122.498;2023-07-30T06:48:09;2.60;;;1.90;;
50631;SDS011;49583;45.590;-122.498;2023-07-30T06:50:22;3.80;;;1.70;;
50631;SDS011;49583;45.590;-122.498;2023-07-30T06:52:35;2.80;;;1.80;;
50631;SDS011;49583;45.590;-122.498;2023-07-30T06:54:47;2.60;;;2.00;;
50631;SDS011;49583;45.590;-122.498;2023-07-30T06:57:00;2.90;;;1.70;;
50631;SDS011;49583;45.590;-122.498;2023-07-30T06:59:13;5.30;;;1.80;;
50631;SDS011;49583;45.590;-122.498;2023-07-30T07:01:26;3.20;;;2.10;;
50631;SDS011;49583;45.590;-122.498;2023-07-30T07:03:39;3.10;;;2.00;;
50631;SDS011;49583;45.590;-122.498;2023-07-30T07:05:54;3.00;;;2.20;;
50631;SDS011;49583;45.590;-122.498;2023-07-30T07:08:07;2.30;;;1.90;;
50631;SDS011;49583;45.590;-122.498;2023-07-30T07:10:19;3.90;;;2.30;;
50631;SDS011;49583;45.590;-122.498;2023-07-30T07:12:32;3.30;;;2.00;;
50631;SDS011;49583;45.590;-122.498;2023-07-30T07:14:45;2.80;;;1.90;;
50631;SDS011;49583;45.590;-122.498;2023-07-30T07:16:57;3.40;;;2.10;;
50631;SDS011;49583;45.590;-122.498;2023-07-30T07:19:10;2.70;;;2.10;;
50631;SDS011;49583;45.590;-122.498;2023-07-30T07:21:23;2.80;;;1.90;;
50631;SDS011;49583;45.590;-122.498;2023-07-30T07:23:35;2.20;;;1.90;;
50631;SDS011;49583;45.590;-122.498;2023-07-30T07:25:48;2.70;;;1.70;;
50631;SDS011;49583;45.590;-122.498;2023-07-30T07:28:01;3.80;;;2.10;;
50631;SDS011;49583;45.590;-122.498;2023-07-30T07:30:14;3.10;;;1.70;;
50631;SDS011;49583;45.590;-122.498;2023-07-30T07:32:27;4.30;;;2.20;;
50631;SDS011;49583;45.590;-122.498;2023-07-30T07:34:47;3.40;;;2.00;;
50631;SDS011;49583;45.590;-122.498;2023-07-30T07:37:00;2.40;;;1.90;;
50631;SDS011;49583;45.590;-122.498;2023-07-30T07:39:14;4.00;;;1.90;;
50631;SDS011;49583;45.590;-122.498;2023-07-30T07:41:26;5.50;;;2.30;;
50631;SDS011;49583;45.590;-122.498;2023-07-30T07:43:39;3.80;;;1.90;;
50631;SDS011;49583;45.590;-122.498;2023-07-30T07:45:51;2.50;;;1.90;;
50631;SDS011;49583;45.590;-122.498;2023-07-30T07:48:04;6.00;;;1.90;;
50631;SDS011;49583;45.590;-122.498;2023-07-30T07:50:17;2.70;;;2.00;;
50631;SDS011;49583;45.590;-122.498;2023-07-30T07:52:30;3.40;;;2.00;;
50631;SDS011;49583;45.590;-122.498;2023-07-30T07:54:42;2.70;;;2.20;;
50631;SDS011;49583;45.590;-122.498;2023-07-30T07:56:55;6.00;;;2.70;;
50631;SDS011;49583;45.590;-122.498;2023-07-30T07:59:08;4.60;;;1.90;;
50631;SDS011;49583;45.590;-122.498;2023-07-30T08:01:20;8.10;;;2.30;;
50631;SDS011;49583;45.590;-122.498;2023-07-30T08:03:33;7.30;;;2.40;;
50631;SDS011;49583;45.590;-122.498;2023-07-30T08:05:46;2.30;;;2.00;;
50631;SDS011;49583;45.590;-122.498;2023-07-30T08:07:59;3.20;;;1.70;;
50631;SDS011;49583;45.590;-122.498;2023-07-30T08:10:12;2.50;;;2.00;;
50631;SDS011;49583;45.590;-122.498;2023-07-30T08:12:25;4.20;;;2.10;;
50631;SDS011;49583;45.590;-122.498;2023-07-30T08:14:40;4.60;;;2.20;;
50631;SDS011;49583;45.590;-122.498;2023-07-30T08:16:53;4.40;;;1.90;;
50631;SDS011;49583;45.590;-122.498;2023-07-30T08:19:06;4.90;;;2.40;;
50631;SDS011;49583;45.590;-122.498;2023-07-30T08:21:18;2.10;;;1.60;;
50631;SDS011;49583;45.590;-122.498;2023-07-30T08:23:31;2.60;;;2.10;;
50631;SDS011;49583;45.590;-122.498;2023-07-30T08:25:43;4.20;;;1.90;;
50631;SDS011;49583;45.590;-122.498;2023-07-30T08:27:58;2.90;;;2.30;;
50631;SDS011;49583;45.590;-122.498;2023-07-30T08:30:12;2.30;;;2.00;;
50631;SDS011;49583;45.590;-122.498;2023-07-30T08:32:25;3.60;;;2.10;;
50631;SDS011;49583;45.590;-122.498;2023-07-30T08:34:38;3.30;;;1.80;;
50631;SDS011;49583;45.590;-122.498;2023-07-30T08:36:50;2.70;;;1.80;;
50631;SDS011;49583;45.590;-122.498;2023-07-30T08:39:03;4.60;;;2.00;;
50631;SDS011;49583;45.590;-122.498;2023-07-30T08:41:16;2.40;;;2.00;;
50631;SDS011;49583;45.590;-122.498;2023-07-30T08:43:28;3.50;;;1.90;;
50631;SDS011;49583;45.590;-122.498;2023-07-30T08:45:41;4.50;;;2.00;;
50631;SDS011;49583;45.590;-122.498;2023-07-30T08:47:54;5.60;;;2.00;;
50631;SDS011;49583;45.590;-122.498;2023-07-30T08:50:09;4.00;;;2.10;;
50631;SDS011;49583;45.590;-122.498;2023-07-30T08:52:22;3.10;;;2.00;;
50631;SDS011;49583;45.590;-122.498;2023-07-30T08:54:37;3.30;;;1.70;;
50631;SDS011;49583;45.590;-122.498;2023-07-30T08:56:50;4.30;;;2.20;;
50631;SDS011;49583;45.590;-122.498;2023-07-30T08:59:03;3.10;;;1.60;;
50631;SDS011;49583;45.590;-122.498;2023-07-30T09:01:16;2.90;;;2.20;;
50631;SDS011;49583;45.590;-122.498;2023-07-30T09:03:31;6.00;;;2.30;;
50631;SDS011;49583;45.590;-122.498;2023-07-30T09:05:47;2.10;;;1.90;;
50631;SDS011;49583;45.590;-122.498;2023-07-30T09:07:59;2.70;;;1.90;;
50631;SDS011;49583;45.590;-122.498;2023-07-30T09:10:12;6.80;;;2.20;;
50631;SDS011;49583;45.590;-122.498;2023-07-30T09:12:28;2.50;;;1.90;;
50631;SDS011;49583;45.590;-122.498;2023-07-30T09:14:41;4.20;;;2.00;;
50631;SDS011;49583;45.590;-122.498;2023-07-30T09:17:00;5.50;;;2.30;;
50631;SDS011;49583;45.590;-122.498;2023-07-30T09:19:13;3.70;;;2.20;;
50631;SDS011;49583;45.590;-122.498;2023-07-30T09:21:31;6.50;;;1.70;;
50631;SDS011;49583;45.590;-122.498;2023-07-30T09:23:46;3.40;;;2.10;;
50631;SDS011;49583;45.590;-122.498;2023-07-30T09:25:59;3.40;;;2.00;;
50631;SDS011;49583;45.590;-122.498;2023-07-30T09:28:13;4.90;;;2.30;;
50631;SDS011;49583;45.590;-122.498;2023-07-30T09:30:28;2.70;;;1.90;;
50631;SDS011;49583;45.590;-122.498;2023-07-30T09:32:41;3.10;;;2.10;;
50631;SDS011;49583;45.590;-122.498;2023-07-30T09:34:54;3.20;;;2.10;;
50631;SDS011;49583;45.590;-122.498;2023-07-30T09:37:13;4.10;;;2.20;;
50631;SDS011;49583;45.590;-122.498;2023-07-30T09:39:26;6.10;;;2.40;;
50631;SDS011;49583;45.590;-122.498;2023-07-30T09:41:39;7.00;;;2.50;;
50631;SDS011;49583;45.590;-122.498;2023-07-30T09:43:59;2.80;;;2.20;;
50631;SDS011;49583;45.590;-122.498;2023-07-30T09:46:12;3.20;;;2.00;;
50631;SDS011;49583;45.590;-122.498;2023-07-30T09:48:25;4.70;;;2.20;;
50631;SDS011;49583;45.590;-122.498;2023-07-30T09:50:38;2.50;;;2.10;;
50631;SDS011;49583;45.590;-122.498;2023-07-30T09:52:52;4.80;;;2.60;;
50631;SDS011;49583;45.590;-122.498;2023-07-30T09:55:08;4.80;;;2.30;;
50631;SDS011;49583;45.590;-122.498;2023-07-30T09:57:22;2.20;;;2.00;;
50631;SDS011;49583;45.590;-122.498;2023-07-30T09:59:34;3.10;;;2.50;;
50631;SDS011;49583;45.590;-122.498;2023-07-30T10:01:48;2.50;;;1.90;;
50631;SDS011;49583;45.590;-122.498;2023-07-30T10:04:05;3.20;;;2.30;;
50631;SDS011;49583;45.590;-122.498;2023-07-30T10:06:20;2.80;;;1.90;;
50631;SDS011;49583;45.590;-122.498;2023-07-30T10:08:34;2.60;;;1.80;;
50631;SDS011;49583;45.590;-122.498;2023-07-30T10:10:52;3.90;;;2.30;;
50631;SDS011;49583;45.590;-122.498;2023-07-30T10:13:08;3.60;;;2.20;;
50631;SDS011;49583;45.590;-122.498;2023-07-30T10:15:22;4.20;;;1.80;;
50631;SDS011;49583;45.590;-122.498;2023-07-30T10:17:35;3.90;;;2.30;;
50631;SDS011;49583;45.590;-122.498;2023-07-30T10:19:48;1.90;;;1.80;;
50631;SDS011;49583;45.590;-122.498;2023-07-30T10:24:33;4.20;;;2.00;;
50631;SDS011;49583;45.590;-122.498;2023-07-30T10:26:47;3.40;;;2.10;;
50631;SDS011;49583;45.590;-122.498;2023-07-30T10:29:17;3.80;;;1.90;;
50631;SDS011;49583;45.590;-122.498;2023-07-30T10:31:40;3.20;;;1.90;;
50631;SDS011;49583;45.590;-122.498;2023-07-30T10:33:55;2.20;;;2.00;;
50631;SDS011;49583;45.590;-122.498;2023-07-30T10:36:16;3.00;;;1.80;;
50631;SDS011;49583;45.590;-122.498;2023-07-30T10:38:37;2.70;;;2.10;;
50631;SDS011;49583;45.590;-122.498;2023-07-30T10:41:04;4.60;;;1.90;;
50631;SDS011;49583;45.590;-122.498;2023-07-30T10:43:19;3.10;;;1.80;;
50631;SDS011;49583;45.590;-122.498;2023-07-30T10:45:32;4.30;;;2.60;;
50631;SDS011;49583;45.590;-122.498;2023-07-30T10:47:45;4.20;;;2.50;;
50631;SDS011;49583;45.590;-122.498;2023-07-30T10:50:02;2.80;;;2.20;;
50631;SDS011;49583;45.590;-122.498;2023-07-30T10:52:20;3.90;;;1.90;;
50631;SDS011;49583;45.590;-122.498;2023-07-30T10:54:36;3.20;;;2.40;;
50631;SDS011;49583;45.590;-122.498;2023-07-30T10:56:49;3.70;;;2.30;;
50631;SDS011;49583;45.590;-122.498;2023-07-30T10:59:03;4.90;;;2.10;;
50631;SDS011;49583;45.590;-122.498;2023-07-30T11:01:17;4.60;;;2.30;;
50631;SDS011;49583;45.590;-122.498;2023-07-30T11:03:33;3.40;;;1.80;;
50631;SDS011;49583;45.590;-122.498;2023-07-30T11:05:48;3.30;;;2.10;;
50631;SDS011;49583;45.590;-122.498;2023-07-30T11:08:00;3.40;;;2.30;;
50631;SDS011;49583;45.590;-122.498;2023-07-30T11:10:14;3.30;;;2.00;;
50631;SDS011;49583;45.590;-122.498;2023-07-30T11:12:27;2.60;;;1.80;;
50631;SDS011;49583;45.590;-122.498;2023-07-30T11:14:40;3.30;;;2.30;;
50631;SDS011;49583;45.590;-122.498;2023-07-30T11:16:53;3.10;;;2.50;;
50631;SDS011;49583;45.590;-122.498;2023-07-30T11:19:09;2.90;;;1.90;;
50631;SDS011;49583;45.590;-122.498;2023-07-30T11:21:22;2.30;;;2.00;;
50631;SDS011;49583;45.590;-122.498;2023-07-30T11:23:35;3.50;;;2.00;;
50631;SDS011;49583;45.590;-122.498;2023-07-30T11:25:50;2.40;;;2.20;;
50631;SDS011;49583;45.590;-122.498;2023-07-30T11:28:03;2.90;;;2.20;;
50631;SDS011;49583;45.590;-122.498;2023-07-30T11:30:16;3.60;;;2.00;;
50631;SDS011;49583;45.590;-122.498;2023-07-30T11:32:30;4.80;;;2.70;;
50631;SDS011;49583;45.590;-122.498;2023-07-30T11:34:43;5.30;;;2.20;;
50631;SDS011;49583;45.590;-122.498;2023-07-30T11:36:56;2.90;;;2.20;;
50631;SDS011;49583;45.590;-122.498;2023-07-30T11:39:09;3.90;;;2.20;;
50631;SDS011;49583;45.590;-122.498;2023-07-30T11:41:23;2.70;;;2.50;;
50631;SDS011;49583;45.590;-122.498;2023-07-30T11:43:37;3.20;;;2.10;;
50631;SDS011;49583;45.590;-122.498;2023-07-30T11:48:21;4.00;;;2.30;;
50631;SDS011;49583;45.590;-122.498;2023-07-30T11:50:44;2.60;;;2.10;;
50631;SDS011;49583;45.590;-122.498;2023-07-30T11:52:57;5.80;;;2.00;;
50631;SDS011;49583;45.590;-122.498;2023-07-30T11:55:10;6.40;;;2.60;;
50631;SDS011;49583;45.590;-122.498;2023-07-30T11:57:23;3.60;;;2.90;;
50631;SDS011;49583;45.590;-122.498;2023-07-30T11:59:45;3.60;;;2.30;;
50631;SDS011;49583;45.590;-122.498;2023-07-30T12:01:58;7.90;;;2.50;;
50631;SDS011;49583;45.590;-122.498;2023-07-30T12:04:11;2.90;;;2.20;;
50631;SDS011;49583;45.590;-122.498;2023-07-30T12:06:24;5.40;;;2.60;;
50631;SDS011;49583;45.590;-122.498;2023-07-30T12:08:51;2.40;;;1.90;;
50631;SDS011;49583;45.590;-122.498;2023-07-30T12:11:04;5.40;;;2.50;;
50631;SDS011;49583;45.590;-122.498;2023-07-30T12:13:19;2.70;;;2.10;;
50631;SDS011;49583;45.590;-122.498;2023-07-30T12:15:32;3.60;;;2.30;;
50631;SDS011;49583;45.590;-122.498;2023-07-30T12:17:45;2.90;;;2.60;;
50631;SDS011;49583;45.590;-122.498;2023-07-30T12:20:00;3.80;;;2.20;;
50631;SDS011;49583;45.590;-122.498;2023-07-30T12:22:14;3.60;;;2.40;;
50631;SDS011;49583;45.590;-122.498;2023-07-30T12:24:26;3.40;;;2.20;;
50631;SDS011;49583;45.590;-122.498;2023-07-30T12:26:39;2.70;;;2.50;;
50631;SDS011;49583;45.590;-122.498;2023-07-30T12:28:51;2.50;;;1.90;;
50631;SDS011;49583;45.590;-122.498;2023-07-30T12:31:04;2.80;;;2.50;;
50631;SDS011;49583;45.590;-122.498;2023-07-30T12:33:16;2.60;;;2.30;;
50631;SDS011;49583;45.590;-122.498;2023-07-30T12:35:29;3.80;;;2.30;;
50631;SDS011;49583;45.590;-122.498;2023-07-30T12:37:42;3.90;;;2.00;;
50631;SDS011;49583;45.590;-122.498;2023-07-30T12:39:55;4.50;;;2.50;;
50631;SDS011;49583;45.590;-122.498;2023-07-30T12:42:07;4.00;;;2.60;;
50631;SDS011;49583;45.590;-122.498;2023-07-30T12:44:20;4.00;;;2.50;;
50631;SDS011;49583;45.590;-122.498;2023-07-30T12:46:33;4.20;;;2.30;;
50631;SDS011;49583;45.590;-122.498;2023-07-30T12:48:45;4.80;;;2.30;;
50631;SDS011;49583;45.590;-122.498;2023-07-30T12:50:58;3.60;;;2.20;;
50631;SDS011;49583;45.590;-122.498;2023-07-30T12:53:11;3.10;;;2.50;;
50631;SDS011;49583;45.590;-122.498;2023-07-30T12:55:24;3.80;;;2.50;;